LVAIT SAWC-SAWH
Flight info
| Callsign | LVAIT |
|---|---|
| Flight time | 1h 34m |
| Altitude | 39000 |
| Route | DEVIS2D DEVIS UW52 GAL UW42 GRA DCT DABLI DABLI1Q |
| Aircraft | LJ35/M-SFGJRW/S |
Departure
| Time | 2026-04-29 19:16 |
|---|---|
| Airport | El Calafate - Commander Armando Tola International Airport (SAWC) |
Arrival
| Time | 2026-04-29 20:50 |
|---|---|
| Airport | Ushuaia - Malvinas Argentinas International Airport (SAWH) |
| Time | Latitude | Longitude | Altitude | Speed | Heading |
|---|---|---|---|---|---|
| 2026-04-29 19:02 | -50.28329 | -72.04731 | 637 ft | 0 kts | 175° |
| 2026-04-29 19:10 | -50.28331 | -72.04730 | 637 ft | 1 kts | 153° |
| 2026-04-29 19:11 | -50.28326 | -72.04714 | 637 ft | 6 kts | 346° |
| 2026-04-29 19:11 | -50.28279 | -72.04741 | 637 ft | 4 kts | 340° |
| 2026-04-29 19:11 | -50.28241 | -72.04747 | 637 ft | 5 kts | 358° |
| 2026-04-29 19:11 | -50.28224 | -72.04790 | 637 ft | 6 kts | 265° |
| 2026-04-29 19:12 | -50.28229 | -72.04873 | 637 ft | 9 kts | 264° |
| 2026-04-29 19:12 | -50.28236 | -72.04987 | 637 ft | 12 kts | 266° |
| 2026-04-29 19:12 | -50.28244 | -72.05128 | 637 ft | 14 kts | 265° |
| 2026-04-29 19:12 | -50.28246 | -72.05181 | 637 ft | 15 kts | 266° |
| 2026-04-29 19:13 | -50.28174 | -72.05409 | 637 ft | 19 kts | 355° |
| 2026-04-29 19:13 | -50.28045 | -72.05408 | 638 ft | 19 kts | 49° |
| 2026-04-29 19:13 | -50.28015 | -72.05189 | 638 ft | 24 kts | 80° |
| 2026-04-29 19:13 | -50.27995 | -72.04912 | 640 ft | 28 kts | 84° |
| 2026-04-29 19:14 | -50.27973 | -72.04579 | 639 ft | 33 kts | 83° |
| 2026-04-29 19:14 | -50.27953 | -72.04187 | 637 ft | 39 kts | 84° |
| 2026-04-29 19:14 | -50.27934 | -72.03771 | 636 ft | 24 kts | 103° |
| 2026-04-29 19:14 | -50.27921 | -72.03571 | 637 ft | 7 kts | 338° |
| 2026-04-29 19:15 | -50.27918 | -72.03614 | 637 ft | 0 kts | 263° |
| 2026-04-29 19:15 | -50.27929 | -72.03787 | 636 ft | 67 kts | 264° |
| 2026-04-29 19:15 | -50.27999 | -72.05199 | 734 ft | 190 kts | 263° |
| 2026-04-29 19:16 | -50.28146 | -72.07537 | 2092 ft | 236 kts | 266° |
| 2026-04-29 19:16 | -50.28298 | -72.10238 | 3987 ft | 259 kts | 265° |
| 2026-04-29 19:16 | -50.28497 | -72.13098 | 6203 ft | 269 kts | 262° |
| 2026-04-29 19:16 | -50.29210 | -72.15794 | 8484 ft | 276 kts | 237° |
| 2026-04-29 19:17 | -50.30581 | -72.16438 | 12805 ft | 193 kts | 184° |
| 2026-04-29 19:17 | -50.31558 | -72.16188 | 14072 ft | 233 kts | 175° |
| 2026-04-29 19:17 | -50.33185 | -72.15142 | 15179 ft | 271 kts | 164° |
| 2026-04-29 19:17 | -50.34999 | -72.13752 | 16274 ft | 301 kts | 163° |
| 2026-04-29 19:18 | -50.36964 | -72.12198 | 17319 ft | 333 kts | 159° |
| 2026-04-29 19:18 | -50.38264 | -72.10654 | 17960 ft | 363 kts | 143° |
| 2026-04-29 19:18 | -50.40542 | -72.06680 | 19757 ft | 373 kts | 141° |
| 2026-04-29 19:18 | -50.42352 | -72.03710 | 21063 ft | 381 kts | 141° |
| 2026-04-29 19:19 | -50.44123 | -72.00530 | 22317 ft | 393 kts | 137° |
| 2026-04-29 19:19 | -50.45842 | -71.97129 | 23401 ft | 402 kts | 135° |
| 2026-04-29 19:19 | -50.47619 | -71.93710 | 24359 ft | 407 kts | 137° |
| 2026-04-29 19:19 | -50.49479 | -71.90320 | 25278 ft | 413 kts | 138° |
| 2026-04-29 19:20 | -50.51360 | -71.86866 | 26155 ft | 420 kts | 137° |
| 2026-04-29 19:20 | -50.53245 | -71.83294 | 26992 ft | 428 kts | 136° |
| 2026-04-29 19:20 | -50.55152 | -71.79665 | 27792 ft | 433 kts | 136° |
| 2026-04-29 19:20 | -50.57115 | -71.76029 | 28557 ft | 438 kts | 138° |
| 2026-04-29 19:21 | -50.59165 | -71.72441 | 29278 ft | 444 kts | 138° |
| 2026-04-29 19:21 | -50.61224 | -71.68773 | 29880 ft | 450 kts | 137° |
| 2026-04-29 19:21 | -50.63297 | -71.65039 | 30415 ft | 455 kts | 137° |
| 2026-04-29 19:21 | -50.65402 | -71.61276 | 30919 ft | 461 kts | 137° |
| 2026-04-29 19:22 | -50.67539 | -71.57475 | 31400 ft | 466 kts | 137° |
| 2026-04-29 19:22 | -50.69695 | -71.53622 | 31856 ft | 471 kts | 137° |
| 2026-04-29 19:22 | -50.71870 | -71.49711 | 32288 ft | 476 kts | 137° |
| 2026-04-29 19:22 | -50.74062 | -71.45766 | 32768 ft | 477 kts | 137° |
| 2026-04-29 19:23 | -50.76230 | -71.41861 | 33695 ft | 469 kts | 137° |
| 2026-04-29 19:23 | -50.78361 | -71.38021 | 34505 ft | 461 kts | 137° |
| 2026-04-29 19:23 | -50.80455 | -71.34247 | 35340 ft | 452 kts | 137° |
| 2026-04-29 19:23 | -50.82509 | -71.30537 | 36195 ft | 444 kts | 136° |
| 2026-04-29 19:24 | -50.84525 | -71.26888 | 37089 ft | 436 kts | 136° |
| 2026-04-29 19:24 | -50.86496 | -71.23314 | 38005 ft | 426 kts | 136° |
| 2026-04-29 19:24 | -50.88423 | -71.19818 | 38767 ft | 416 kts | 136° |
| 2026-04-29 19:24 | -50.90308 | -71.16394 | 39524 ft | 406 kts | 136° |
| 2026-04-29 19:25 | -50.92134 | -71.13071 | 40308 ft | 395 kts | 136° |
| 2026-04-29 19:25 | -50.93911 | -71.09832 | 41121 ft | 383 kts | 136° |
| 2026-04-29 19:25 | -50.95629 | -71.06698 | 41960 ft | 370 kts | 135° |
| 2026-04-29 19:25 | -50.97281 | -71.03681 | 42827 ft | 354 kts | 135° |
| 2026-04-29 19:26 | -50.98861 | -71.00789 | 43713 ft | 337 kts | 135° |
| 2026-04-29 19:26 | -51.00346 | -70.98049 | 44584 ft | 318 kts | 133° |
| 2026-04-29 19:26 | -51.01487 | -70.95168 | 45402 ft | 299 kts | 118° |
| 2026-04-29 19:26 | -51.02160 | -70.92168 | 46010 ft | 283 kts | 105° |
| 2026-04-29 19:27 | -51.02471 | -70.89059 | 45711 ft | 299 kts | 98° |
| 2026-04-29 19:27 | -51.02728 | -70.85685 | 45403 ft | 311 kts | 99° |
| 2026-04-29 19:27 | -51.02997 | -70.82360 | 45839 ft | 294 kts | 99° |
| 2026-04-29 19:27 | -51.03250 | -70.79190 | 46052 ft | 289 kts | 99° |
| 2026-04-29 19:28 | -51.03509 | -70.75933 | 45685 ft | 306 kts | 99° |
| 2026-04-29 19:28 | -51.04025 | -70.69219 | 46048 ft | 293 kts | 99° |
| 2026-04-29 19:28 | -51.04277 | -70.66012 | 46012 ft | 297 kts | 99° |
| 2026-04-29 19:29 | -51.04536 | -70.62717 | 45734 ft | 309 kts | 99° |
| 2026-04-29 19:29 | -51.04792 | -70.59348 | 45896 ft | 302 kts | 98° |
| 2026-04-29 19:29 | -51.05041 | -70.56083 | 46145 ft | 295 kts | 99° |
| 2026-04-29 19:29 | -51.05298 | -70.52811 | 45984 ft | 303 kts | 100° |
| 2026-04-29 19:30 | -51.05913 | -70.49521 | 45689 ft | 310 kts | 120° |
| 2026-04-29 19:30 | -51.07027 | -70.46655 | 45857 ft | 297 kts | 135° |
| 2026-04-29 19:30 | -51.08271 | -70.44127 | 46222 ft | 285 kts | 133° |
| 2026-04-29 19:30 | -51.09469 | -70.41634 | 46104 ft | 293 kts | 133° |
| 2026-04-29 19:31 | -51.10740 | -70.39015 | 45846 ft | 303 kts | 133° |
| 2026-04-29 19:31 | -51.12031 | -70.36354 | 46073 ft | 294 kts | 133° |
| 2026-04-29 19:31 | -51.13267 | -70.33804 | 46274 ft | 289 kts | 133° |
| 2026-04-29 19:31 | -51.14517 | -70.31237 | 46067 ft | 299 kts | 133° |
| 2026-04-29 19:32 | -51.15779 | -70.28629 | 45992 ft | 302 kts | 133° |
| 2026-04-29 19:32 | -51.17055 | -70.25976 | 46245 ft | 293 kts | 133° |
| 2026-04-29 19:32 | -51.18282 | -70.23436 | 46287 ft | 294 kts | 133° |
| 2026-04-29 19:32 | -51.19552 | -70.20822 | 46105 ft | 302 kts | 133° |
| 2026-04-29 19:33 | -51.20831 | -70.18161 | 46162 ft | 300 kts | 132° |
| 2026-04-29 19:33 | -51.22086 | -70.15544 | 46357 ft | 294 kts | 133° |
| 2026-04-29 19:33 | -51.23340 | -70.12947 | 46319 ft | 298 kts | 133° |
| 2026-04-29 19:33 | -51.24616 | -70.10297 | 46209 ft | 303 kts | 133° |
| 2026-04-29 19:34 | -51.25890 | -70.07637 | 46325 ft | 300 kts | 133° |
| 2026-04-29 19:34 | -51.27147 | -70.05012 | 46431 ft | 297 kts | 133° |
| 2026-04-29 19:34 | -51.28412 | -70.02379 | 46349 ft | 301 kts | 133° |
| 2026-04-29 19:35 | -51.31039 | -69.96920 | 45735 ft | 331 kts | 132° |
| 2026-04-29 19:35 | -51.32487 | -69.93896 | 45266 ft | 354 kts | 131° |
| 2026-04-29 19:35 | -51.34034 | -69.90640 | 44614 ft | 383 kts | 131° |
| 2026-04-29 19:35 | -51.35721 | -69.87094 | 43780 ft | 416 kts | 131° |
| 2026-04-29 19:36 | -51.37535 | -69.83273 | 43014 ft | 446 kts | 130° |
| 2026-04-29 19:36 | -51.39465 | -69.79211 | 42267 ft | 473 kts | 130° |
| 2026-04-29 19:36 | -51.41503 | -69.74910 | 41526 ft | 496 kts | 130° |
| 2026-04-29 19:36 | -51.43598 | -69.70477 | 40786 ft | 497 kts | 130° |
| 2026-04-29 19:37 | -51.45672 | -69.66074 | 40033 ft | 491 kts | 130° |
| 2026-04-29 19:37 | -51.47028 | -69.63199 | 39535 ft | 488 kts | 130° |
| 2026-04-29 19:37 | -51.49759 | -69.57418 | 38569 ft | 483 kts | 130° |
| 2026-04-29 19:37 | -51.51751 | -69.53175 | 38383 ft | 467 kts | 130° |
| 2026-04-29 19:38 | -51.53691 | -69.49036 | 38377 ft | 467 kts | 130° |
| 2026-04-29 19:38 | -51.57686 | -69.40531 | 38373 ft | 485 kts | 130° |
| 2026-04-29 19:39 | -51.62484 | -69.32952 | 38372 ft | 485 kts | 148° |
| 2026-04-29 19:39 | -51.68433 | -69.28005 | 38374 ft | 480 kts | 161° |
| 2026-04-29 19:40 | -51.74575 | -69.23716 | 38374 ft | 481 kts | 160° |
| 2026-04-29 19:40 | -51.80684 | -69.19442 | 38369 ft | 482 kts | 160° |
| 2026-04-29 19:41 | -51.86836 | -69.15125 | 38369 ft | 482 kts | 160° |
| 2026-04-29 19:41 | -51.92990 | -69.10791 | 38362 ft | 482 kts | 160° |
| 2026-04-29 19:42 | -51.99141 | -69.06449 | 38357 ft | 483 kts | 160° |
| 2026-04-29 19:42 | -52.05340 | -69.02056 | 38351 ft | 483 kts | 160° |
| 2026-04-29 19:43 | -52.11501 | -68.97681 | 38343 ft | 483 kts | 160° |
| 2026-04-29 19:43 | -52.17661 | -68.93290 | 38339 ft | 483 kts | 160° |
| 2026-04-29 19:44 | -52.23825 | -68.88885 | 38333 ft | 484 kts | 160° |
| 2026-04-29 19:44 | -52.29997 | -68.84460 | 38326 ft | 484 kts | 160° |
| 2026-04-29 19:45 | -52.36122 | -68.80054 | 38327 ft | 485 kts | 160° |
| 2026-04-29 19:45 | -52.42297 | -68.75600 | 38321 ft | 485 kts | 160° |
| 2026-04-29 19:46 | -52.48477 | -68.71129 | 38315 ft | 485 kts | 160° |
| 2026-04-29 19:46 | -52.54649 | -68.66649 | 38310 ft | 486 kts | 160° |
| 2026-04-29 19:47 | -52.60839 | -68.62142 | 38308 ft | 486 kts | 160° |
| 2026-04-29 19:47 | -52.67028 | -68.57623 | 38302 ft | 486 kts | 160° |
| 2026-04-29 19:48 | -52.73212 | -68.53092 | 38303 ft | 486 kts | 160° |
| 2026-04-29 19:48 | -52.79397 | -68.48547 | 38297 ft | 487 kts | 159° |
| 2026-04-29 19:49 | -52.85583 | -68.43992 | 38295 ft | 487 kts | 159° |
| 2026-04-29 19:49 | -52.91770 | -68.39425 | 38286 ft | 487 kts | 159° |
| 2026-04-29 19:50 | -52.97955 | -68.34842 | 38283 ft | 487 kts | 159° |
| 2026-04-29 19:50 | -53.04140 | -68.30247 | 38282 ft | 487 kts | 159° |
| 2026-04-29 19:51 | -53.10323 | -68.25638 | 38281 ft | 487 kts | 159° |
| 2026-04-29 19:51 | -53.16511 | -68.21011 | 38276 ft | 487 kts | 159° |
| 2026-04-29 19:52 | -53.22689 | -68.16377 | 38272 ft | 487 kts | 159° |
| 2026-04-29 19:52 | -53.28863 | -68.11731 | 38273 ft | 486 kts | 159° |
| 2026-04-29 19:53 | -53.34998 | -68.07099 | 38268 ft | 486 kts | 159° |
| 2026-04-29 19:53 | -53.41163 | -68.02430 | 38265 ft | 486 kts | 159° |
| 2026-04-29 19:54 | -53.50411 | -67.95399 | 38261 ft | 486 kts | 159° |
| 2026-04-29 19:54 | -53.56562 | -67.90703 | 38254 ft | 486 kts | 159° |
| 2026-04-29 19:55 | -53.62727 | -67.85982 | 38256 ft | 486 kts | 158° |
| 2026-04-29 19:55 | -53.68883 | -67.81252 | 38259 ft | 486 kts | 158° |
| 2026-04-29 19:56 | -53.75043 | -67.76554 | 38256 ft | 485 kts | 161° |
| 2026-04-29 19:56 | -53.80437 | -67.74309 | 38250 ft | 478 kts | 177° |
| 2026-04-29 19:57 | -53.87059 | -67.73583 | 38260 ft | 477 kts | 179° |
| 2026-04-29 19:57 | -53.93681 | -67.72861 | 38255 ft | 477 kts | 179° |
| 2026-04-29 19:58 | -54.00314 | -67.72163 | 38250 ft | 478 kts | 179° |
| 2026-04-29 19:58 | -54.06949 | -67.71446 | 38240 ft | 478 kts | 179° |
| 2026-04-29 19:59 | -54.13587 | -67.70734 | 38233 ft | 478 kts | 179° |
| 2026-04-29 19:59 | -54.20237 | -67.70017 | 38230 ft | 478 kts | 179° |
| 2026-04-29 20:00 | -54.26882 | -67.69298 | 38229 ft | 479 kts | 179° |
| 2026-04-29 20:00 | -54.33523 | -67.68577 | 38229 ft | 479 kts | 179° |
| 2026-04-29 20:01 | -54.40178 | -67.67852 | 38229 ft | 479 kts | 179° |
| 2026-04-29 20:01 | -54.46821 | -67.67127 | 38228 ft | 479 kts | 179° |
| 2026-04-29 20:02 | -54.53476 | -67.66396 | 38228 ft | 479 kts | 179° |
| 2026-04-29 20:02 | -54.59018 | -67.65784 | 38227 ft | 479 kts | 179° |
| 2026-04-29 20:03 | -54.66798 | -67.64924 | 38225 ft | 480 kts | 179° |
| 2026-04-29 20:03 | -54.73460 | -67.64170 | 38222 ft | 480 kts | 179° |
| 2026-04-29 20:04 | -54.80078 | -67.63936 | 38209 ft | 474 kts | 192° |
| 2026-04-29 20:04 | -54.83204 | -67.65582 | 38210 ft | 468 kts | 208° |
| 2026-04-29 20:04 | -54.85901 | -67.68636 | 38210 ft | 461 kts | 224° |
| 2026-04-29 20:05 | -54.87962 | -67.72836 | 38209 ft | 456 kts | 240° |
| 2026-04-29 20:05 | -54.89196 | -67.77609 | 38207 ft | 452 kts | 255° |
| 2026-04-29 20:05 | -54.89618 | -67.82987 | 38201 ft | 450 kts | 271° |
| 2026-04-29 20:05 | -54.89142 | -67.88342 | 38202 ft | 449 kts | 285° |
| 2026-04-29 20:06 | -54.87006 | -67.98540 | 38212 ft | 450 kts | 290° |
| 2026-04-29 20:06 | -54.85046 | -68.08844 | 38208 ft | 450 kts | 284° |
| 2026-04-29 20:07 | -54.83894 | -68.19497 | 38206 ft | 450 kts | 276° |
| 2026-04-29 20:07 | -54.84127 | -68.30335 | 38205 ft | 450 kts | 263° |
| 2026-04-29 20:08 | -54.84800 | -68.39299 | 38200 ft | 450 kts | 265° |
| 2026-04-29 20:08 | -54.85112 | -68.51912 | 38206 ft | 450 kts | 267° |
| 2026-04-29 20:09 | -54.85597 | -68.62746 | 38210 ft | 450 kts | 266° |
| 2026-04-29 20:09 | -54.85935 | -68.73595 | 38218 ft | 450 kts | 267° |
| 2026-04-29 20:10 | -54.86330 | -68.84442 | 38223 ft | 450 kts | 267° |
| 2026-04-29 20:10 | -54.86686 | -68.95298 | 38224 ft | 451 kts | 267° |
| 2026-04-29 20:11 | -54.87044 | -69.06153 | 38227 ft | 450 kts | 267° |
| 2026-04-29 20:11 | -54.87389 | -69.17013 | 38233 ft | 450 kts | 267° |
| 2026-04-29 20:12 | -54.87723 | -69.27871 | 38232 ft | 450 kts | 267° |
| 2026-04-29 20:12 | -54.88051 | -69.38731 | 38235 ft | 450 kts | 267° |
| 2026-04-29 20:13 | -54.88365 | -69.49603 | 38235 ft | 450 kts | 267° |
| 2026-04-29 20:13 | -54.88671 | -69.60385 | 38236 ft | 450 kts | 268° |
| 2026-04-29 20:14 | -54.88966 | -69.71236 | 38230 ft | 449 kts | 268° |
| 2026-04-29 20:14 | -54.89254 | -69.82095 | 38233 ft | 449 kts | 268° |
| 2026-04-29 20:15 | -54.89530 | -69.92928 | 38231 ft | 449 kts | 268° |
| 2026-04-29 20:15 | -54.89797 | -70.03764 | 38232 ft | 449 kts | 268° |
| 2026-04-29 20:16 | -54.90055 | -70.14607 | 38233 ft | 448 kts | 268° |
| 2026-04-29 20:16 | -54.90301 | -70.25417 | 38231 ft | 448 kts | 268° |
| 2026-04-29 20:17 | -54.90539 | -70.36246 | 38229 ft | 448 kts | 268° |
| 2026-04-29 20:17 | -54.90767 | -70.47061 | 38226 ft | 448 kts | 268° |
| 2026-04-29 20:18 | -54.90985 | -70.57873 | 38227 ft | 448 kts | 268° |
| 2026-04-29 20:18 | -54.91194 | -70.68695 | 38227 ft | 447 kts | 268° |
| 2026-04-29 20:19 | -54.91393 | -70.79505 | 38229 ft | 447 kts | 268° |
| 2026-04-29 20:19 | -54.91581 | -70.90242 | 38229 ft | 447 kts | 268° |
| 2026-04-29 20:20 | -54.91761 | -71.01052 | 38225 ft | 447 kts | 269° |
| 2026-04-29 20:20 | -54.91930 | -71.11863 | 38223 ft | 447 kts | 269° |
| 2026-04-29 20:21 | -54.92091 | -71.22677 | 38226 ft | 447 kts | 269° |
| 2026-04-29 20:21 | -54.92242 | -71.33484 | 38221 ft | 447 kts | 269° |
| 2026-04-29 20:22 | -54.92383 | -71.44289 | 38226 ft | 447 kts | 269° |
| 2026-04-29 20:22 | -54.92515 | -71.55106 | 38219 ft | 447 kts | 269° |
| 2026-04-29 20:23 | -54.92637 | -71.65905 | 38218 ft | 447 kts | 269° |
| 2026-04-29 20:23 | -54.92749 | -71.76698 | 38217 ft | 446 kts | 269° |
| 2026-04-29 20:24 | -54.92852 | -71.87484 | 38216 ft | 446 kts | 269° |
| 2026-04-29 20:24 | -54.92945 | -71.98274 | 38217 ft | 446 kts | 269° |
| 2026-04-29 20:25 | -54.93028 | -72.09041 | 38219 ft | 445 kts | 269° |
| 2026-04-29 20:25 | -54.93102 | -72.19729 | 38213 ft | 445 kts | 269° |
| 2026-04-29 20:26 | -54.93166 | -72.30480 | 38215 ft | 444 kts | 269° |
| 2026-04-29 20:26 | -54.93221 | -72.41235 | 38212 ft | 444 kts | 269° |
| 2026-04-29 20:27 | -54.93259 | -72.50161 | 38211 ft | 444 kts | 269° |
| 2026-04-29 20:27 | -54.93302 | -72.62695 | 38211 ft | 443 kts | 270° |
| 2026-04-29 20:28 | -54.93329 | -72.73422 | 38210 ft | 443 kts | 270° |
| 2026-04-29 20:28 | -54.93346 | -72.84066 | 38212 ft | 442 kts | 270° |
| 2026-04-29 20:29 | -54.93353 | -72.94759 | 38210 ft | 442 kts | 270° |
| 2026-04-29 20:29 | -54.93352 | -73.05462 | 38212 ft | 442 kts | 270° |
| 2026-04-29 20:30 | -54.93340 | -73.16149 | 38214 ft | 442 kts | 270° |
| 2026-04-29 20:30 | -54.93320 | -73.26823 | 38216 ft | 439 kts | 270° |
| 2026-04-29 20:31 | -54.92204 | -73.37086 | 38201 ft | 437 kts | 295° |
| 2026-04-29 20:31 | -54.90425 | -73.41380 | 38207 ft | 442 kts | 311° |
| 2026-04-29 20:31 | -54.87961 | -73.44621 | 38202 ft | 449 kts | 328° |
| 2026-04-29 20:32 | -54.85014 | -73.46504 | 38208 ft | 457 kts | 344° |
| 2026-04-29 20:32 | -54.81828 | -73.46864 | 38213 ft | 466 kts | 0° |
| 2026-04-29 20:32 | -54.78643 | -73.45645 | 38214 ft | 474 kts | 17° |
| 2026-04-29 20:32 | -54.76663 | -73.43994 | 38218 ft | 480 kts | 28° |
| 2026-04-29 20:33 | -54.73305 | -73.38857 | 38222 ft | 488 kts | 50° |
| 2026-04-29 20:33 | -54.71587 | -73.33789 | 38220 ft | 492 kts | 66° |
| 2026-04-29 20:33 | -54.70702 | -73.28077 | 38219 ft | 494 kts | 82° |
| 2026-04-29 20:33 | -54.70703 | -73.22146 | 38224 ft | 493 kts | 96° |
| 2026-04-29 20:34 | -54.71620 | -73.10403 | 38239 ft | 493 kts | 103° |
| 2026-04-29 20:34 | -54.73143 | -72.98845 | 38232 ft | 492 kts | 107° |
| 2026-04-29 20:35 | -54.74969 | -72.87432 | 38232 ft | 493 kts | 103° |
| 2026-04-29 20:35 | -54.76070 | -72.75708 | 38229 ft | 494 kts | 100° |
| 2026-04-29 20:36 | -54.77465 | -72.64068 | 38226 ft | 493 kts | 103° |
| 2026-04-29 20:36 | -54.78738 | -72.52398 | 38227 ft | 493 kts | 101° |
| 2026-04-29 20:37 | -54.80029 | -72.40749 | 38223 ft | 492 kts | 102° |
| 2026-04-29 20:37 | -54.81305 | -72.29177 | 38225 ft | 492 kts | 101° |
| 2026-04-29 20:38 | -54.82037 | -72.17397 | 38215 ft | 492 kts | 91° |
| 2026-04-29 20:38 | -54.81925 | -72.05537 | 38218 ft | 492 kts | 90° |
| 2026-04-29 20:39 | -54.82296 | -71.93704 | 38220 ft | 491 kts | 94° |
| 2026-04-29 20:39 | -54.82457 | -71.81862 | 38220 ft | 491 kts | 91° |
| 2026-04-29 20:40 | -54.82690 | -71.70030 | 38220 ft | 491 kts | 92° |
| 2026-04-29 20:40 | -54.82885 | -71.58197 | 38222 ft | 490 kts | 91° |
| 2026-04-29 20:41 | -54.83069 | -71.46374 | 38227 ft | 490 kts | 92° |
| 2026-04-29 20:41 | -54.83224 | -71.36549 | 38232 ft | 490 kts | 91° |
| 2026-04-29 20:42 | -54.83409 | -71.22735 | 38229 ft | 490 kts | 91° |
| 2026-04-29 20:42 | -54.83541 | -71.12921 | 38230 ft | 490 kts | 91° |
| 2026-04-29 20:43 | -54.83741 | -70.95873 | 38233 ft | 490 kts | 91° |
| 2026-04-29 20:43 | -54.84181 | -70.48263 | 35998 ft | 505 kts | 90° |
| 2026-04-29 20:44 | -54.84333 | -70.24075 | 33056 ft | 498 kts | 90° |
| 2026-04-29 20:44 | -54.84437 | -70.00074 | 30588 ft | 496 kts | 90° |
| 2026-04-29 20:44 | -54.84493 | -69.76193 | 28090 ft | 494 kts | 90° |
| 2026-04-29 20:44 | -54.84502 | -69.52378 | 25493 ft | 488 kts | 90° |
| 2026-04-29 20:45 | -54.84466 | -69.29413 | 23099 ft | 468 kts | 90° |
| 2026-04-29 20:45 | -54.84390 | -69.06948 | 20450 ft | 464 kts | 89° |
| 2026-04-29 20:45 | -54.84278 | -68.85892 | 17932 ft | 398 kts | 89° |
| 2026-04-29 20:45 | -54.84154 | -68.67548 | 15287 ft | 367 kts | 89° |
| 2026-04-29 20:46 | -54.84011 | -68.50252 | 12785 ft | 346 kts | 89° |
| 2026-04-29 20:46 | -54.83896 | -68.37987 | 10815 ft | 332 kts | 89° |
| 2026-04-29 20:46 | -54.83889 | -68.34107 | 10301 ft | 293 kts | 96° |
| 2026-04-29 20:46 | -54.84414 | -68.31036 | 8466 ft | 262 kts | 116° |
| 2026-04-29 20:47 | -54.85256 | -68.28306 | 6668 ft | 250 kts | 115° |
| 2026-04-29 20:47 | -54.86073 | -68.25771 | 5245 ft | 227 kts | 103° |
| 2026-04-29 20:47 | -54.86796 | -68.23351 | 3528 ft | 222 kts | 117° |
| 2026-04-29 20:47 | -54.86703 | -68.20939 | 2325 ft | 201 kts | 63° |
| 2026-04-29 20:48 | -54.85787 | -68.19282 | 1470 ft | 175 kts | 22° |
| 2026-04-29 20:48 | -54.84646 | -68.19364 | 1089 ft | 168 kts | 333° |
| 2026-04-29 20:48 | -54.84004 | -68.20902 | 985 ft | 162 kts | 275° |
| 2026-04-29 20:48 | -54.84005 | -68.22933 | 665 ft | 172 kts | 267° |
| 2026-04-29 20:49 | -54.84112 | -68.25018 | 405 ft | 172 kts | 264° |
| 2026-04-29 20:49 | -54.84232 | -68.27000 | 173 ft | 158 kts | 267° |
| 2026-04-29 20:49 | -54.84298 | -68.28767 | 80 ft | 134 kts | 267° |
| 2026-04-29 20:49 | -54.84351 | -68.30223 | 74 ft | 109 kts | 266° |
| 2026-04-29 20:50 | -54.84371 | -68.30908 | 78 ft | 12 kts | 275° |
| 2026-04-29 20:50 | -54.84302 | -68.30958 | 77 ft | 21 kts | 354° |
| 2026-04-29 20:50 | -54.84215 | -68.30827 | 76 ft | 25 kts | 84° |
| 2026-04-29 20:50 | -54.84121 | -68.30648 | 76 ft | 21 kts | 43° |
| 2026-04-29 20:51 | -54.84105 | -68.30500 | 77 ft | 13 kts | 95° |
| 2026-04-29 20:51 | -54.84132 | -68.30471 | 69 ft | 0 kts | 176° |